Time;durP1;ratioP1;P1;durP2;ratioP2;P2;SDS_P1;SDS_P2;PMS_P1;PMS_P2;Temp;Humidity;BMP_temperature;BMP_pressure;BME280_temperature;BME280_humidity;BME280_pressure;Samples;Min_cycle;Max_cycle;Signal;HPM_P1;HPM_P2
2021/09/14 00:00:55;;;;;;;15.90;14.60;;;14.50;99.90;;;;;;5051340;28;20448;-57
2021/09/14 00:03:22;;;;;;;15.73;14.13;;;14.40;99.90;;;;;;5051251;28;20925;-57
2021/09/14 00:05:48;;;;;;;15.60;14.23;;;14.40;99.90;;;;;;5045133;28;20930;-57
2021/09/14 00:08:15;;;;;;;15.00;13.90;;;14.40;99.90;;;;;;5031489;28;20449;-57
2021/09/14 00:10:43;;;;;;;15.97;14.70;;;14.40;99.90;;;;;;5031489;28;20454;-55
2021/09/14 00:13:10;;;;;;;16.33;14.70;;;14.40;99.90;;;;;;5033246;28;20448;-56
2021/09/14 00:15:37;;;;;;;16.67;15.37;;;14.40;99.90;;;;;;5035466;28;20460;-56
2021/09/14 00:18:04;;;;;;;16.80;15.40;;;14.40;99.90;;;;;;5041300;28;20447;-57
2021/09/14 00:20:31;;;;;;;15.57;14.17;;;14.40;99.90;;;;;;5055250;28;20981;-56
2021/09/14 00:22:58;;;;;;;16.20;14.90;;;14.40;99.90;;;;;;5055112;28;20447;-54
2021/09/14 00:25:25;;;;;;;15.93;14.37;;;14.40;99.90;;;;;;5055135;28;20806;-58
2021/09/14 00:27:53;;;;;;;14.97;13.73;;;14.40;99.90;;;;;;5055366;28;20447;-55
2021/09/14 00:30:19;;;;;;;17.00;15.50;;;14.50;99.90;;;;;;5045483;28;20973;-56
2021/09/14 00:32:46;;;;;;;15.10;13.80;;;14.50;99.90;;;;;;5034979;28;20957;-58
2021/09/14 00:35:13;;;;;;;16.13;14.63;;;14.50;99.90;;;;;;5035184;28;20476;-53
2021/09/14 00:37:39;;;;;;;15.03;13.83;;;14.50;99.90;;;;;;5035970;28;20449;-54
2021/09/14 00:40:07;;;;;;;13.57;12.47;;;14.40;99.90;;;;;;5054810;28;20487;-58
2021/09/14 00:42:35;;;;;;;15.57;14.27;;;14.40;99.90;;;;;;5054781;28;20444;-58
2021/09/14 00:45:03;;;;;;;16.20;14.70;;;14.40;99.90;;;;;;5054783;28;20991;-58
2021/09/14 00:47:30;;;;;;;16.10;14.70;;;14.40;99.90;;;;;;5041302;28;20456;-56
2021/09/14 00:49:58;;;;;;;13.53;12.43;;;14.40;99.90;;;;;;5034953;28;20448;-53
2021/09/14 00:52:24;;;;;;;13.90;12.50;;;14.40;99.90;;;;;;5034668;28;20444;-54
2021/09/14 00:54:51;;;;;;;14.70;13.37;;;14.30;99.90;;;;;;5034735;28;20461;-54
2021/09/14 00:57:18;;;;;;;15.80;14.23;;;14.40;99.90;;;;;;5046029;28;20945;-57
2021/09/14 00:59:45;;;;;;;16.07;14.67;;;14.40;99.90;;;;;;5054516;28;20483;-57
2021/09/14 01:02:13;;;;;;;14.80;13.47;;;14.30;99.90;;;;;;5054385;28;20943;-57
2021/09/14 01:04:40;;;;;;;15.13;13.70;;;14.30;99.90;;;;;;5050975;28;20460;-56
2021/09/14 01:07:06;;;;;;;16.97;15.20;;;14.30;99.90;;;;;;5034488;28;20799;-57
2021/09/14 01:09:36;;;;;;;15.70;14.30;;;14.30;99.90;;;;;;5034588;28;20444;-58
2021/09/14 01:12:03;;;;;;;13.33;12.03;;;14.30;99.90;;;;;;5034273;28;20871;-55
2021/09/14 01:14:30;;;;;;;15.37;13.73;;;14.20;99.90;;;;;;5035751;28;20473;-53
2021/09/14 01:16:57;;;;;;;14.87;13.57;;;14.20;99.90;;;;;;5053950;28;20456;-57
2021/09/14 01:19:25;;;;;;;15.40;14.20;;;14.20;99.90;;;;;;5054132;28;20479;-58
2021/09/14 01:21:52;;;;;;;14.50;13.17;;;14.10;99.90;;;;;;5054244;28;20451;-58
2021/09/14 01:24:20;;;;;;;14.83;13.43;;;14.10;99.90;;;;;;5051400;28;20471;-56
2021/09/14 01:26:46;;;;;;;15.17;13.77;;;14.10;99.90;;;;;;5034234;28;20449;-54
2021/09/14 01:30:11;;;;;;;15.60;14.30;;;14.00;99.90;;;;;;5034299;28;20453;-54
2021/09/14 01:32:01;;;;;;;15.40;13.90;;;14.00;99.90;;;;;;5033812;28;20451;-56
2021/09/14 01:34:28;;;;;;;17.10;15.67;;;14.00;99.90;;;;;;5036121;28;20469;-57
2021/09/14 01:36:55;;;;;;;15.20;14.00;;;14.00;99.90;;;;;;5053699;28;20506;-55
2021/09/14 01:39:23;;;;;;;17.37;15.97;;;13.90;99.90;;;;;;5053756;28;20492;-57
2021/09/14 01:41:49;;;;;;;15.80;13.97;;;13.90;99.90;;;;;;5053864;28;20501;-53
2021/09/14 01:44:16;;;;;;;15.53;14.07;;;13.90;99.90;;;;;;5039464;28;20469;-55
2021/09/14 01:46:44;;;;;;;17.10;14.90;;;13.90;99.90;;;;;;5033896;28;20957;-57
2021/09/14 01:49:10;;;;;;;16.10;14.40;;;13.80;99.90;;;;;;5033794;28;20452;-57
2021/09/14 01:51:37;;;;;;;19.93;16.47;;;13.80;99.90;;;;;;5039153;28;20826;-57
2021/09/14 01:54:05;;;;;;;17.70;15.80;;;13.80;99.90;;;;;;5053531;28;20464;-55
2021/09/14 01:56:33;;;;;;;17.73;15.97;;;13.80;99.90;;;;;;5053668;28;20455;-58
2021/09/14 01:59:00;;;;;;;16.53;14.83;;;13.70;99.90;;;;;;5053468;28;20448;-56
2021/09/14 02:01:29;;;;;;;15.63;14.00;;;13.70;99.90;;;;;;5048662;28;20456;-56
2021/09/14 02:04:00;;;;;;;16.60;14.20;;;13.70;99.90;;;;;;5033407;28;20507;-57
2021/09/14 02:40:15;;;;;;;17.73;16.07;;;13.30;99.90;;;;;;5052814;28;20522;-54
2021/09/14 02:43:00;;;;;;;19.70;16.60;;;13.30;99.90;;;;;;5052507;28;20501;-56
2021/09/14 02:56:36;;;;;;;18.70;16.80;;;13.30;99.90;;;;;;5032565;28;20918;-58
2021/09/14 02:59:02;;;;;;;19.87;17.67;;;13.30;99.90;;;;;;5050943;28;20487;-59
2021/09/14 03:01:30;;;;;;;19.77;17.50;;;13.30;99.90;;;;;;5052198;28;20475;-57
2021/09/14 03:03:57;;;;;;;16.50;14.90;;;13.20;99.90;;;;;;5052361;28;20229;-57
2021/09/14 03:06:24;;;;;;;18.90;15.57;;;13.20;99.90;;;;;;5052154;28;20487;-56
2021/09/14 03:08:52;;;;;;;18.73;16.77;;;13.20;99.90;;;;;;5034531;28;20862;-58
2021/09/14 03:11:20;;;;;;;20.73;18.47;;;13.20;99.90;;;;;;5032168;28;20828;-59
2021/09/14 03:13:47;;;;;;;24.57;22.07;;;13.10;99.90;;;;;;5032029;28;20998;-56
2021/09/14 03:16:14;;;;;;;31.80;23.40;;;13.10;99.90;;;;;;5032228;28;20457;-59
2021/09/14 03:18:43;;;;;;;21.43;19.17;;;13.10;99.90;;;;;;5033581;28;20452;-59
2021/09/14 03:21:11;;;;;;;19.00;17.10;;;13.10;99.90;;;;;;5051641;28;20480;-56
2021/09/14 03:23:38;;;;;;;25.00;20.60;;;13.10;99.90;;;;;;5051871;28;20468;-56
2021/09/14 03:26:05;;;;;;;19.87;17.00;;;13.10;99.90;;;;;;5051550;28;20523;-61
2021/09/14 03:28:31;;;;;;;21.53;17.27;;;13.10;99.90;;;;;;5035991;28;20453;-54
2021/09/14 03:30:58;;;;;;;20.83;18.00;;;13.00;99.90;;;;;;5044039;28;20436;-55
2021/09/14 03:33:25;;;;;;;26.17;20.37;;;13.00;99.90;;;;;;5051053;28;20809;-58
2021/09/14 03:35:54;;;;;;;20.33;17.67;;;13.10;99.90;;;;;;5051622;28;20448;-55
2021/09/14 03:38:20;;;;;;;22.30;20.10;;;13.10;99.90;;;;;;5051058;28;20451;-61
2021/09/14 03:40:47;;;;;;;19.30;17.30;;;13.00;99.90;;;;;;5031604;28;20484;-59
2021/09/14 03:43:14;;;;;;;18.37;16.60;;;13.00;99.90;;;;;;5031377;28;20996;-61
2021/09/14 03:45:46;;;;;;;20.23;18.20;;;13.00;99.90;;;;;;5031701;28;20506;-58
2021/09/14 03:48:14;;;;;;;24.60;22.00;;;13.00;99.90;;;;;;5030773;28;20931;-57
2021/09/14 03:50:41;;;;;;;23.83;21.33;;;12.90;99.90;;;;;;5033705;28;20445;-55
2021/09/14 03:53:09;;;;;;;25.90;21.20;;;12.90;99.90;;;;;;5051017;28;20448;-56
2021/09/14 03:55:36;;;;;;;23.17;19.53;;;12.90;99.90;;;;;;5051287;28;20451;-57
2021/09/14 03:58:03;;;;;;;24.13;20.70;;;12.90;99.90;;;;;;5051076;28;20470;-55
2021/09/14 04:00:29;;;;;;;22.23;19.83;;;12.80;99.90;;;;;;5036459;28;20477;-58
2021/09/14 04:03:00;;;;;;;20.27;18.27;;;12.90;99.90;;;;;;5031160;28;20890;-58
2021/09/14 04:05:30;;;;;;;19.43;16.77;;;12.80;99.90;;;;;;5031275;28;20560;-59
2021/09/14 04:10:41;;;;;;;23.87;19.33;;;12.80;99.90;;;;;;5045237;28;20436;-58
2021/09/14 04:13:09;;;;;;;24.57;19.70;;;12.80;99.90;;;;;;5050844;28;20440;-55
2021/09/14 04:15:36;;;;;;;19.90;17.67;;;12.80;99.90;;;;;;5051433;28;20459;-55
2021/09/14 04:18:03;;;;;;;19.67;17.77;;;12.80;99.90;;;;;;5051118;28;20440;-58
2021/09/14 04:20:30;;;;;;;21.00;17.70;;;12.80;99.90;;;;;;5050985;28;20476;-58
2021/09/14 04:22:57;;;;;;;20.50;18.40;;;12.80;99.90;;;;;;5032352;28;20452;-56
2021/09/14 04:25:23;;;;;;;20.40;18.50;;;12.80;99.90;;;;;;5031038;28;20473;-55
2021/09/14 04:27:51;;;;;;;18.90;17.00;;;12.80;99.90;;;;;;5031194;28;20449;-57
2021/09/14 04:30:18;;;;;;;20.23;17.80;;;12.80;99.90;;;;;;5031083;28;20449;-58
2021/09/14 04:32:45;;;;;;;21.03;17.93;;;12.70;99.90;;;;;;5030496;28;20978;-57
2021/09/14 04:35:12;;;;;;;20.47;18.37;;;12.70;99.90;;;;;;5030814;28;20487;-57
2021/09/14 04:37:38;;;;;;;19.63;17.70;;;12.70;99.90;;;;;;5030863;28;20445;-54
2021/09/14 04:40:06;;;;;;;21.60;19.30;;;12.70;99.90;;;;;;5029143;28;20515;-56
2021/09/14 04:42:32;;;;;;;20.73;18.57;;;12.70;99.90;;;;;;5034441;28;20452;-57
2021/09/14 04:45:00;;;;;;;21.67;18.90;;;12.70;99.90;;;;;;5049403;28;20490;-55
2021/09/14 04:47:27;;;;;;;29.87;23.60;;;12.70;99.90;;;;;;5050974;28;20436;-56
2021/09/14 04:49:54;;;;;;;23.07;20.67;;;12.70;99.90;;;;;;5050952;28;20436;-59
2021/09/14 04:52:20;;;;;;;29.70;20.83;;;12.70;99.90;;;;;;5050849;28;20440;-56
2021/09/14 04:54:47;;;;;;;22.97;20.50;;;12.70;99.90;;;;;;5051130;28;20471;-58
2021/09/14 04:57:14;;;;;;;25.50;20.67;;;12.70;99.90;;;;;;5050865;28;20456;-56
2021/09/14 04:59:40;;;;;;;26.77;19.83;;;12.70;99.90;;;;;;5053399;28;20440;-56
2021/09/14 05:02:08;;;;;;;24.77;18.83;;;12.70;99.90;;;;;;5054323;28;20926;-57
2021/09/14 05:04:35;;;;;;;25.57;19.80;;;12.80;99.90;;;;;;5054454;28;20468;-56
2021/09/14 05:07:02;;;;;;;28.10;22.50;;;12.80;99.90;;;;;;5054663;28;20862;-59
2021/09/14 05:09:28;;;;;;;28.73;22.33;;;12.80;99.90;;;;;;5054457;28;20456;-56
2021/09/14 05:11:55;;;;;;;28.53;22.80;;;12.80;99.90;;;;;;5054261;28;20451;-58
2021/09/14 05:14:22;;;;;;;29.63;23.57;;;12.90;99.90;;;;;;5054310;28;20534;-57
2021/09/14 05:16:48;;;;;;;29.10;21.60;;;12.90;99.90;;;;;;5054318;28;20440;-60
2021/09/14 05:19:23;;;;;;;25.47;21.83;;;13.10;99.90;;;;;;5054291;28;20440;-58
2021/09/14 05:21:51;;;;;;;22.70;19.50;;;13.10;99.90;;;;;;5054012;28;20515;-58
2021/09/14 05:24:17;;;;;;;24.37;20.77;;;13.20;99.90;;;;;;5054082;28;20837;-59
2021/09/14 05:26:44;;;;;;;23.20;20.80;;;13.20;99.90;;;;;;5054012;28;20598;-56
2021/09/14 05:29:11;;;;;;;23.00;20.50;;;13.20;99.90;;;;;;5054023;28;20459;-58
2021/09/14 05:31:38;;;;;;;29.47;22.60;;;13.30;99.90;;;;;;5053583;28;20444;-57
2021/09/14 05:34:04;;;;;;;24.73;20.70;;;13.40;99.90;;;;;;5053847;28;20464;-56
2021/09/14 05:36:33;;;;;;;25.47;20.17;;;13.40;99.90;;;;;;5053931;28;20453;-56
2021/09/14 05:39:00;;;;;;;31.80;22.80;;;13.50;99.90;;;;;;5053883;28;20455;-59
2021/09/14 05:41:27;;;;;;;25.13;22.03;;;13.60;99.90;;;;;;5053658;28;20484;-58
2021/09/14 05:43:53;;;;;;;26.20;21.27;;;13.70;99.90;;;;;;5053747;28;20525;-58
2021/09/14 05:46:21;;;;;;;22.27;19.97;;;13.80;99.90;;;;;;5053682;28;20439;-58
2021/09/14 05:48:47;;;;;;;25.00;21.30;;;13.90;99.90;;;;;;5053755;28;20934;-58
2021/09/14 05:51:14;;;;;;;23.83;20.60;;;14.10;99.90;;;;;;5053455;28;20443;-57
2021/09/14 05:53:42;;;;;;;30.33;22.03;;;14.20;99.90;;;;;;5053455;28;20468;-59
2021/09/14 05:56:09;;;;;;;23.93;21.33;;;14.30;99.90;;;;;;5053676;28;20451;-59
2021/09/14 05:58:35;;;;;;;22.43;20.13;;;14.50;99.90;;;;;;5053518;28;20440;-60
2021/09/14 06:01:02;;;;;;;22.17;19.40;;;14.60;99.90;;;;;;5053282;28;20479;-57
2021/09/14 06:03:29;;;;;;;23.90;20.80;;;14.70;99.90;;;;;;5053159;28;20452;-60
2021/09/14 06:05:56;;;;;;;22.13;19.83;;;14.80;99.90;;;;;;5053466;28;20535;-59
2021/09/14 06:08:23;;;;;;;19.67;17.73;;;15.00;99.90;;;;;;5053287;28;20440;-59
2021/09/14 06:10:51;;;;;;;22.63;20.30;;;15.10;99.90;;;;;;5052530;28;20440;-58
2021/09/14 06:13:17;;;;;;;20.83;18.97;;;15.20;99.90;;;;;;5052949;28;20460;-60
2021/09/14 06:15:45;;;;;;;23.90;19.27;;;15.30;99.90;;;;;;5053326;28;20444;-58
2021/09/14 06:18:11;;;;;;;18.87;16.97;;;15.40;99.90;;;;;;5053227;28;20451;-59
2021/09/14 06:20:38;;;;;;;18.80;17.17;;;15.50;99.90;;;;;;5053171;28;20484;-60
2021/09/14 06:23:05;;;;;;;20.30;18.50;;;15.60;99.90;;;;;;5052954;28;20440;-59
2021/09/14 06:25:32;;;;;;;18.50;16.80;;;15.70;99.90;;;;;;5053003;28;20464;-60
2021/09/14 06:28:00;;;;;;;17.50;15.83;;;15.80;99.90;;;;;;5053053;28;20942;-57
2021/09/14 06:30:27;;;;;;;16.77;15.30;;;15.90;99.90;;;;;;5052946;28;20444;-59
2021/09/14 06:32:53;;;;;;;18.00;16.30;;;16.00;99.90;;;;;;5052617;28;20452;-56
2021/09/14 06:35:20;;;;;;;18.23;16.50;;;16.10;99.90;;;;;;5052658;28;20475;-60
2021/09/14 06:37:47;;;;;;;16.47;15.07;;;16.20;99.90;;;;;;5052787;28;20447;-60
2021/09/14 06:40:14;;;;;;;16.07;14.70;;;16.30;99.90;;;;;;5052723;28;20859;-59
2021/09/14 06:42:40;;;;;;;14.27;12.90;;;16.30;99.90;;;;;;5052400;28;20942;-57
2021/09/14 06:45:10;;;;;;;17.23;15.83;;;16.50;99.90;;;;;;5052652;28;20549;-60
2021/09/14 06:47:37;;;;;;;16.03;14.63;;;16.60;99.90;;;;;;5052540;28;20452;-59
2021/09/14 06:50:04;;;;;;;20.73;16.50;;;16.70;99.90;;;;;;5052468;28;20447;-56
2021/09/14 06:52:31;;;;;;;17.60;16.00;;;16.80;99.90;;;;;;5052221;28;20455;-60
2021/09/14 06:54:58;;;;;;;16.00;14.60;;;16.90;99.90;;;;;;5052340;28;20483;-54
2021/09/14 06:57:24;;;;;;;16.20;14.80;;;17.00;99.90;;;;;;5052474;28;20444;-59
2021/09/14 06:59:51;;;;;;;15.70;14.50;;;17.10;99.90;;;;;;5052334;28;20448;-59
2021/09/14 07:02:19;;;;;;;17.73;15.20;;;17.30;99.90;;;;;;5051910;28;20491;-58
2021/09/14 07:04:47;;;;;;;17.60;15.90;;;17.40;99.90;;;;;;5052085;28;20831;-55
2021/09/14 07:07:14;;;;;;;15.00;13.80;;;17.50;99.90;;;;;;5052119;28;20501;-59
2021/09/14 07:09:41;;;;;;;15.07;13.67;;;17.70;99.90;;;;;;5052061;28;20444;-60
2021/09/14 07:12:08;;;;;;;15.47;14.27;;;17.80;99.90;;;;;;5051962;28;20507;-54
2021/09/14 07:14:37;;;;;;;16.47;14.97;;;17.90;99.90;;;;;;5051973;28;21003;-60
2021/09/14 07:17:03;;;;;;;15.90;14.70;;;17.90;99.90;;;;;;5052338;28;20476;-54
2021/09/14 07:19:32;;;;;;;16.57;15.30;;;18.00;99.90;;;;;;5051919;28;20471;-58
2021/09/14 07:21:58;;;;;;;19.33;17.70;;;18.00;99.90;;;;;;5051581;28;20483;-58
2021/09/14 07:24:25;;;;;;;15.97;14.80;;;18.10;99.90;;;;;;5052001;28;20471;-58
2021/09/14 07:26:51;;;;;;;16.77;15.57;;;18.30;99.90;;;;;;5052053;28;20502;-58
2021/09/14 07:29:18;;;;;;;18.33;16.93;;;18.30;99.90;;;;;;5051850;28;20976;-58
2021/09/14 07:31:45;;;;;;;17.73;16.47;;;18.30;99.90;;;;;;5051433;28;20841;-57
2021/09/14 07:34:12;;;;;;;19.03;17.63;;;18.30;99.90;;;;;;5051796;28;20579;-54
2021/09/14 07:36:40;;;;;;;17.90;16.70;;;18.40;99.90;;;;;;5051860;28;20436;-57
2021/09/14 07:39:07;;;;;;;17.20;15.83;;;18.40;99.90;;;;;;5051640;28;20448;-57
2021/09/14 07:41:34;;;;;;;17.40;15.93;;;18.40;99.90;;;;;;5051256;28;20488;-58
2021/09/14 07:44:00;;;;;;;17.80;16.37;;;18.50;99.90;;;;;;5051565;28;20456;-55
2021/09/14 07:46:27;;;;;;;16.90;15.50;;;18.50;99.90;;;;;;5051438;28;20451;-58
2021/09/14 07:48:54;;;;;;;18.07;16.70;;;18.50;99.90;;;;;;5051462;28;20444;-54
2021/09/14 07:51:22;;;;;;;16.57;15.30;;;18.50;99.90;;;;;;5051357;28;20440;-56
2021/09/14 07:53:50;;;;;;;16.70;15.70;;;18.50;99.90;;;;;;5051438;28;20563;-59
2021/09/14 07:56:16;;;;;;;16.73;15.50;;;18.50;99.90;;;;;;5051482;28;20813;-60
2021/09/14 07:58:43;;;;;;;17.63;16.33;;;18.50;99.90;;;;;;5051541;28;20459;-58
2021/09/14 08:01:10;;;;;;;18.60;17.10;;;18.50;99.90;;;;;;5051096;28;20476;-58
2021/09/14 08:03:37;;;;;;;18.10;16.80;;;18.60;99.90;;;;;;5051208;28;20471;-56
2021/09/14 08:06:03;;;;;;;17.20;16.07;;;18.60;99.90;;;;;;5051406;28;20440;-56
2021/09/14 08:08:30;;;;;;;16.27;15.23;;;18.60;99.90;;;;;;5051216;28;20447;-56
2021/09/14 08:10:58;;;;;;;18.70;17.10;;;18.60;99.90;;;;;;5051099;28;20463;-55
2021/09/14 08:13:25;;;;;;;17.87;16.67;;;18.70;99.90;;;;;;5050996;28;20451;-59
2021/09/14 08:15:52;;;;;;;17.33;16.23;;;18.80;99.90;;;;;;5051194;28;20448;-59
2021/09/14 08:18:18;;;;;;;17.43;16.33;;;18.90;99.90;;;;;;5051271;28;20448;-57
2021/09/14 08:20:45;;;;;;;17.50;16.30;;;19.00;99.90;;;;;;5051032;28;20455;-56
2021/09/14 08:23:12;;;;;;;16.40;15.40;;;19.20;99.90;;;;;;5050874;28;20505;-58
2021/09/14 08:25:39;;;;;;;17.07;15.87;;;19.40;99.90;;;;;;5051065;28;20456;-55
2021/09/14 08:28:06;;;;;;;16.90;15.50;;;19.50;99.90;;;;;;5051061;28;20455;-56
2021/09/14 08:30:33;;;;;;;16.67;15.77;;;19.50;99.90;;;;;;5051088;28;20452;-58
2021/09/14 08:33:00;;;;;;;17.43;16.27;;;19.50;99.90;;;;;;5050844;28;20942;-56
2021/09/14 08:35:27;;;;;;;17.00;15.90;;;19.60;99.90;;;;;;5055105;28;20822;-59
2021/09/14 08:37:53;;;;;;;16.50;15.40;;;19.70;99.90;;;;;;5055053;28;20448;-59
2021/09/14 08:40:20;;;;;;;16.80;15.77;;;19.90;99.90;;;;;;5055177;28;20499;-57
2021/09/14 08:42:47;;;;;;;17.10;16.00;;;19.90;99.90;;;;;;5054599;28;20559;-54
2021/09/14 08:45:15;;;;;;;16.63;15.60;;;20.10;99.90;;;;;;5054853;28;20468;-59
2021/09/14 08:47:42;;;;;;;16.00;15.20;;;20.30;99.90;;;;;;5054834;28;20451;-58
2021/09/14 08:50:10;;;;;;;17.03;16.10;;;20.40;99.90;;;;;;5054834;28;20929;-57
2021/09/14 08:52:37;;;;;;;17.30;16.27;;;20.60;99.90;;;;;;5054588;28;20463;-54
2021/09/14 08:55:04;;;;;;;17.10;16.10;;;20.80;99.90;;;;;;5054714;28;20547;-55
2021/09/14 08:57:31;;;;;;;17.17;16.27;;;20.90;99.90;;;;;;5054663;28;20448;-59
2021/09/14 08:59:57;;;;;;;18.37;17.30;;;21.10;99.90;;;;;;5054620;28;20455;-54
2021/09/14 09:02:26;;;;;;;16.80;15.90;;;21.40;99.90;;;;;;5054304;28;20483;-60
2021/09/14 09:04:57;;;;;;;18.57;17.47;;;21.60;99.90;;;;;;5054587;28;20460;-58
2021/09/14 09:07:34;;;;;;;18.33;17.10;;;21.90;99.90;;;;;;5054448;28;20446;-56
2021/09/14 09:10:12;;;;;;;19.53;18.07;;;22.00;99.90;;;;;;5054507;28;20444;-56
2021/09/14 09:12:40;;;;;;;18.80;17.70;;;22.20;99.90;;;;;;5054308;28;20490;-59
2021/09/14 09:15:10;;;;;;;20.03;18.90;;;22.30;99.90;;;;;;5054292;28;20555;-58
2021/09/14 09:17:38;;;;;;;18.20;17.10;;;22.40;99.90;;;;;;5054487;28;20444;-59
2021/09/14 09:20:06;;;;;;;18.40;17.03;;;22.40;99.90;;;;;;5054277;28;20440;-59
2021/09/14 09:22:33;;;;;;;19.80;18.50;;;22.30;99.90;;;;;;5054044;28;21056;-57
2021/09/14 09:25:00;;;;;;;19.70;18.60;;;22.20;99.90;;;;;;5053958;28;20472;-58
2021/09/14 09:27:29;;;;;;;19.17;18.27;;;22.20;99.90;;;;;;5054119;28;20463;-58
2021/09/14 09:30:01;;;;;;;18.50;17.50;;;22.40;99.90;;;;;;5054038;28;20448;-57
2021/09/14 09:32:28;;;;;;;18.90;17.90;;;22.40;99.90;;;;;;5053890;28;20548;-59
2021/09/14 09:35:00;;;;;;;20.50;19.40;;;22.50;99.90;;;;;;5054002;28;20473;-57
2021/09/14 09:37:27;;;;;;;19.50;18.60;;;22.70;99.90;;;;;;5054019;28;20444;-56
2021/09/14 09:39:53;;;;;;;19.17;18.00;;;22.80;99.90;;;;;;5053937;28;20468;-57
2021/09/14 09:42:21;;;;;;;19.47;18.57;;;22.80;99.90;;;;;;5053479;28;20827;-57
2021/09/14 09:44:55;;;;;;;20.43;19.23;;;22.90;99.90;;;;;;5052737;28;20500;-56
2021/09/14 09:47:22;;;;;;;20.20;18.90;;;23.20;99.90;;;;;;5053958;28;20941;-55
2021/09/14 09:49:48;;;;;;;22.27;21.27;;;23.50;99.90;;;;;;5053644;28;20448;-59
2021/09/14 09:52:17;;;;;;;21.03;19.90;;;23.80;99.90;;;;;;5053597;28;20448;-56
2021/09/14 09:54:45;;;;;;;20.67;19.67;;;24.10;99.90;;;;;;5053576;28;20503;-55
2021/09/14 09:57:12;;;;;;;19.33;18.43;;;24.40;99.90;;;;;;5053670;28;20505;-59
2021/09/14 09:59:39;;;;;;;20.87;19.73;;;24.70;99.90;;;;;;5053547;28;20498;-58
2021/09/14 10:02:15;;;;;;;20.57;19.60;;;24.70;99.90;;;;;;5053207;28;20866;-58
2021/09/14 10:04:46;;;;;;;19.73;18.87;;;25.00;99.90;;;;;;5053550;28;20476;-57
2021/09/14 10:07:13;;;;;;;18.93;18.03;;;25.40;99.90;;;;;;5053606;28;20456;-57
2021/09/14 10:09:52;;;;;;;19.83;18.83;;;25.60;99.90;;;;;;5053368;28;20452;-54
2021/09/14 10:12:27;;;;;;;19.63;18.60;;;26.10;99.90;;;;;;5053159;28;20708;-56
2021/09/14 10:15:03;;;;;;;20.83;19.70;;;26.10;99.40;;;;;;5059460;28;20527;-60
2021/09/14 10:17:31;;;;;;;19.97;19.07;;;26.00;98.20;;;;;;5063592;28;20459;-57
2021/09/14 10:20:09;;;;;;;19.60;18.60;;;25.80;98.00;;;;;;5059850;28;20448;-59
2021/09/14 10:22:35;;;;;;;19.90;19.10;;;25.80;97.50;;;;;;5062327;28;20476;-60
2021/09/14 10:25:06;;;;;;;19.10;18.30;;;25.90;97.20;;;;;;5071651;28;20462;-60
2021/09/14 10:27:37;;;;;;;20.00;19.10;;;25.70;97.60;;;;;;5071315;28;20456;-59
2021/09/14 10:30:05;;;;;;;18.90;18.10;;;25.60;97.70;;;;;;5070455;28;20436;-62
2021/09/14 10:32:40;;;;;;;19.67;18.57;;;25.40;99.10;;;;;;5069069;28;20466;-61
2021/09/14 10:35:08;;;;;;;19.17;18.37;;;25.20;98.70;;;;;;5061014;28;20493;-59
2021/09/14 10:37:36;;;;;;;20.03;19.03;;;25.10;99.90;;;;;;5061736;28;20803;-59
2021/09/14 10:40:14;;;;;;;18.10;17.40;;;25.00;99.90;;;;;;5061734;28;20444;-61
2021/09/14 10:42:43;;;;;;;18.00;17.30;;;25.20;99.90;;;;;;5059991;28;20479;-58
2021/09/14 10:45:12;;;;;;;19.20;18.03;;;25.50;99.90;;;;;;5060817;28;20836;-62
2021/09/14 10:47:40;;;;;;;18.70;17.90;;;25.60;99.80;;;;;;5063953;28;20451;-58
2021/09/14 10:50:09;;;;;;;18.47;17.67;;;25.80;99.20;;;;;;5068848;28;20444;-57
2021/09/14 10:52:38;;;;;;;19.50;18.40;;;26.20;98.80;;;;;;5070160;28;20933;-58
2021/09/14 10:55:12;;;;;;;19.93;18.93;;;26.70;96.90;;;;;;5066699;28;20567;-60
2021/09/14 10:57:40;;;;;;;19.20;18.40;;;27.00;96.10;;;;;;5065486;28;20459;-59
2021/09/14 11:00:09;;;;;;;19.40;18.50;;;27.60;95.00;;;;;;5066170;28;20436;-61
2021/09/14 11:02:36;;;;;;;19.30;18.50;;;27.80;93.30;;;;;;5064122;28;20490;-58
2021/09/14 11:05:03;;;;;;;19.80;18.80;;;28.30;92.50;;;;;;5065758;28;20471;-61
2021/09/14 11:07:31;;;;;;;19.87;19.07;;;28.60;92.10;;;;;;5066242;28;20436;-59
2021/09/14 11:09:59;;;;;;;21.40;20.53;;;29.20;90.60;;;;;;5066535;28;20440;-57
2021/09/14 11:12:30;;;;;;;20.97;20.17;;;29.30;85.20;;;;;;5066716;28;20447;-59
2021/09/14 11:15:00;;;;;;;20.83;19.87;;;29.90;80.50;;;;;;5065337;28;20472;-60
2021/09/14 11:17:29;;;;;;;20.97;20.07;;;30.30;77.40;;;;;;5063949;28;20439;-62
2021/09/14 11:20:07;;;;;;;21.57;20.73;;;30.60;73.50;;;;;;5064654;28;20809;-58
2021/09/14 11:22:35;;;;;;;21.73;20.73;;;31.70;69.50;;;;;;5064840;28;20475;-62
2021/09/14 11:25:02;;;;;;;22.57;21.67;;;32.50;62.40;;;;;;5067913;28;20452;-60
2021/09/14 11:27:31;;;;;;;22.57;21.57;;;32.40;59.30;;;;;;5067754;28;20469;-58
2021/09/14 11:29:58;;;;;;;21.13;20.33;;;31.70;59.90;;;;;;5067096;28;20523;-62
2021/09/14 11:32:27;;;;;;;22.53;21.63;;;32.60;59.50;;;;;;5066030;28;20444;-62
2021/09/14 11:34:55;;;;;;;23.20;22.30;;;33.20;60.00;;;;;;5065471;28;20546;-62
2021/09/14 11:37:29;;;;;;;23.10;22.03;;;36.10;55.50;;;;;;5065579;28;20530;-61
2021/09/14 11:39:55;;;;;;;22.75;21.85;;;38.10;48.70;;;;;;5066224;28;20201;-61
2021/09/14 11:42:22;;;;;;;22.08;21.17;;;39.90;43.80;;;;;;5065105;28;20683;-61
2021/09/14 11:45:01;;;;;;;22.60;21.70;;;41.20;40.40;;;;;;5066910;28;20232;-60
2021/09/14 11:47:28;;;;;;;20.95;20.25;;;42.80;37.30;;;;;;5067895;28;20216;-61
2021/09/14 11:49:55;;;;;;;21.45;20.65;;;44.00;35.00;;;;;;5067009;28;20220;-62
2021/09/14 11:52:21;;;;;;;23.20;22.23;;;44.60;32.20;;;;;;5067855;28;20264;-61
2021/09/14 11:54:48;;;;;;;23.23;22.33;;;44.40;31.90;;;;;;5067647;28;20232;-58
2021/09/14 11:57:16;;;;;;;23.10;22.20;;;44.90;31.40;;;;;;5069183;28;20211;-62
2021/09/14 11:59:43;;;;;;;22.50;21.70;;;46.00;30.40;;;;;;5070165;28;20224;-59
2021/09/14 12:02:11;;;;;;;22.70;21.90;;;47.10;29.50;;;;;;5069919;28;20231;-58
2021/09/14 12:04:38;;;;;;;23.52;22.63;;;47.30;29.10;;;;;;5068414;28;20298;-62
2021/09/14 12:07:05;;;;;;;22.02;21.23;;;45.20;28.60;;;;;;5069345;28;20193;-60
2021/09/14 12:09:31;;;;;;;23.40;22.40;;;44.70;29.50;;;;;;5071321;28;20193;-58
2021/09/14 12:12:03;;;;;;;23.67;22.70;;;43.40;29.70;;;;;;5070683;28;20201;-59
2021/09/14 12:14:30;;;;;;;23.15;22.17;;;41.60;31.40;;;;;;5071883;28;20293;-62
2021/09/14 12:17:00;;;;;;;22.80;21.80;;;40.60;33.20;;;;;;5071106;28;20263;-58
2021/09/14 12:19:28;;;;;;;22.75;21.95;;;39.70;34.80;;;;;;5071790;28;20208;-60
2021/09/14 12:21:55;;;;;;;23.58;22.60;;;39.30;34.70;;;;;;5070918;28;20201;-58
2021/09/14 12:24:22;;;;;;;23.50;22.60;;;39.10;35.50;;;;;;5073076;28;20702;-61
2021/09/14 12:26:51;;;;;;;22.40;21.45;;;38.70;35.90;;;;;;5072518;28;20208;-59
2021/09/14 12:29:20;;;;;;;23.10;22.27;;;38.70;35.80;;;;;;5071390;28;20272;-60
2021/09/14 12:31:47;;;;;;;22.23;21.42;;;37.70;36.80;;;;;;5070483;28;20201;-60
2021/09/14 12:34:15;;;;;;;23.20;22.00;;;37.00;37.50;;;;;;5069899;28;20245;-60
2021/09/14 12:36:45;;;;;;;22.60;21.75;;;36.40;38.60;;;;;;5070209;28;20209;-57
2021/09/14 12:39:13;;;;;;;22.90;22.10;;;36.00;39.70;;;;;;5069464;28;20205;-58
2021/09/14 12:41:40;;;;;;;23.73;22.83;;;35.90;40.50;;;;;;5068566;28;20209;-57
2021/09/14 12:44:07;;;;;;;23.17;22.27;;;35.20;40.80;;;;;;5068650;28;20221;-57
2021/09/14 12:46:34;;;;;;;24.33;23.33;;;34.20;41.90;;;;;;5068466;28;20550;-60
2021/09/14 12:49:01;;;;;;;22.97;22.07;;;33.70;43.10;;;;;;5068166;28;20532;-60
2021/09/14 12:51:28;;;;;;;23.83;22.73;;;33.20;43.90;;;;;;5067143;28;20471;-57
2021/09/14 12:53:56;;;;;;;23.33;22.17;;;32.70;45.10;;;;;;5064264;28;20490;-62
2021/09/14 12:56:23;;;;;;;22.90;21.90;;;32.40;46.30;;;;;;5064435;28;20471;-61
2021/09/14 12:58:51;;;;;;;22.97;21.97;;;32.10;46.80;;;;;;5065884;28;20454;-59
2021/09/14 13:01:18;;;;;;;23.37;22.47;;;32.00;47.30;;;;;;5066310;28;20455;-60
2021/09/14 13:03:45;;;;;;;23.03;22.13;;;31.90;48.00;;;;;;5065405;28;20455;-58
2021/09/14 13:06:12;;;;;;;24.23;23.33;;;31.70;48.70;;;;;;5066614;28;20451;-62
2021/09/14 13:08:39;;;;;;;23.83;22.63;;;31.60;49.40;;;;;;5065552;28;20455;-58
2021/09/14 13:11:07;;;;;;;23.03;22.23;;;31.80;49.20;;;;;;5065594;28;20446;-59
2021/09/14 13:16:18;;;;;;;24.10;23.00;;;32.40;48.70;;;;;;5064409;28;20426;-61
2021/09/14 13:18:47;;;;;;;23.50;22.50;;;32.90;48.10;;;;;;5064830;28;20443;-62
2021/09/14 13:21:16;;;;;;;23.27;22.30;;;33.20;48.00;;;;;;5068084;28;20448;-61